sensor_id;sensor_type;location;lat;lon;timestamp;P1;durP1;ratioP1;P2;durP2;ratioP2
9629;SDS011;16022;50.884;4.698;2022-07-29T00:01:40;3.60;;;1.63;;
9629;SDS011;16022;50.884;4.698;2022-07-29T00:04:07;2.88;;;1.70;;
9629;SDS011;16022;50.884;4.698;2022-07-29T00:06:35;2.85;;;1.60;;
9629;SDS011;16022;50.884;4.698;2022-07-29T00:09:04;2.35;;;1.42;;
9629;SDS011;16022;50.884;4.698;2022-07-29T00:11:31;5.15;;;1.48;;
9629;SDS011;16022;50.884;4.698;2022-07-29T00:13:59;2.83;;;1.60;;
9629;SDS011;16022;50.884;4.698;2022-07-29T00:16:26;4.50;;;1.75;;
9629;SDS011;16022;50.884;4.698;2022-07-29T00:18:54;3.45;;;1.67;;
9629;SDS011;16022;50.884;4.698;2022-07-29T00:21:27;3.08;;;1.40;;
9629;SDS011;16022;50.884;4.698;2022-07-29T00:23:54;2.60;;;1.70;;
9629;SDS011;16022;50.884;4.698;2022-07-29T00:26:22;3.55;;;1.73;;
9629;SDS011;16022;50.884;4.698;2022-07-29T00:28:50;3.03;;;1.67;;
9629;SDS011;16022;50.884;4.698;2022-07-29T00:31:37;5.72;;;1.70;;
9629;SDS011;16022;50.884;4.698;2022-07-29T00:34:05;4.60;;;1.85;;
9629;SDS011;16022;50.884;4.698;2022-07-29T00:36:53;3.25;;;1.60;;
9629;SDS011;16022;50.884;4.698;2022-07-29T00:39:21;6.53;;;2.10;;
9629;SDS011;16022;50.884;4.698;2022-07-29T00:41:49;2.70;;;1.80;;
9629;SDS011;16022;50.884;4.698;2022-07-29T00:44:17;4.40;;;1.80;;
9629;SDS011;16022;50.884;4.698;2022-07-29T00:46:44;4.68;;;1.73;;
9629;SDS011;16022;50.884;4.698;2022-07-29T00:49:12;4.72;;;1.80;;
9629;SDS011;16022;50.884;4.698;2022-07-29T00:51:40;3.20;;;1.92;;
9629;SDS011;16022;50.884;4.698;2022-07-29T00:54:07;2.03;;;1.77;;
9629;SDS011;16022;50.884;4.698;2022-07-29T00:56:35;4.65;;;2.17;;
9629;SDS011;16022;50.884;4.698;2022-07-29T00:59:03;1.95;;;1.75;;
9629;SDS011;16022;50.884;4.698;2022-07-29T01:01:30;2.92;;;1.98;;
9629;SDS011;16022;50.884;4.698;2022-07-29T01:03:59;6.35;;;2.15;;
9629;SDS011;16022;50.884;4.698;2022-07-29T01:06:26;2.42;;;1.80;;
9629;SDS011;16022;50.884;4.698;2022-07-29T01:08:54;3.92;;;2.08;;
9629;SDS011;16022;50.884;4.698;2022-07-29T01:11:21;4.20;;;1.80;;
9629;SDS011;16022;50.884;4.698;2022-07-29T01:13:49;3.13;;;1.90;;
9629;SDS011;16022;50.884;4.698;2022-07-29T01:16:31;3.95;;;1.70;;
9629;SDS011;16022;50.884;4.698;2022-07-29T01:19:44;4.82;;;2.30;;
9629;SDS011;16022;50.884;4.698;2022-07-29T01:21:51;4.55;;;2.03;;
9629;SDS011;16022;50.884;4.698;2022-07-29T01:29:23;5.13;;;2.05;;
9629;SDS011;16022;50.884;4.698;2022-07-29T01:31:59;4.38;;;2.10;;
9629;SDS011;16022;50.884;4.698;2022-07-29T01:37:19;3.80;;;1.90;;
9629;SDS011;16022;50.884;4.698;2022-07-29T01:39:49;2.65;;;1.90;;
9629;SDS011;16022;50.884;4.698;2022-07-29T01:47:20;5.05;;;2.22;;
9629;SDS011;16022;50.884;4.698;2022-07-29T01:49:51;4.30;;;1.90;;
9629;SDS011;16022;50.884;4.698;2022-07-29T01:52:21;3.35;;;2.20;;
9629;SDS011;16022;50.884;4.698;2022-07-29T01:54:52;5.65;;;2.15;;
9629;SDS011;16022;50.884;4.698;2022-07-29T01:57:21;6.85;;;2.22;;
9629;SDS011;16022;50.884;4.698;2022-07-29T01:59:52;3.65;;;1.90;;
9629;SDS011;16022;50.884;4.698;2022-07-29T02:02:19;5.90;;;2.45;;
9629;SDS011;16022;50.884;4.698;2022-07-29T02:04:48;1.90;;;1.73;;
9629;SDS011;16022;50.884;4.698;2022-07-29T02:07:18;3.10;;;1.63;;
9629;SDS011;16022;50.884;4.698;2022-07-29T02:09:47;4.00;;;1.92;;
9629;SDS011;16022;50.884;4.698;2022-07-29T02:12:17;3.80;;;1.80;;
9629;SDS011;16022;50.884;4.698;2022-07-29T02:14:47;4.13;;;1.80;;
9629;SDS011;16022;50.884;4.698;2022-07-29T02:17:15;3.20;;;2.00;;
9629;SDS011;16022;50.884;4.698;2022-07-29T02:19:45;6.47;;;2.05;;
9629;SDS011;16022;50.884;4.698;2022-07-29T02:22:13;7.25;;;2.00;;
9629;SDS011;16022;50.884;4.698;2022-07-29T02:24:42;4.60;;;2.05;;
9629;SDS011;16022;50.884;4.698;2022-07-29T02:27:11;2.60;;;1.90;;
9629;SDS011;16022;50.884;4.698;2022-07-29T02:29:39;4.55;;;1.90;;
9629;SDS011;16022;50.884;4.698;2022-07-29T02:32:07;6.63;;;2.10;;
9629;SDS011;16022;50.884;4.698;2022-07-29T02:34:36;5.97;;;2.20;;
9629;SDS011;16022;50.884;4.698;2022-07-29T02:37:05;5.03;;;2.30;;
9629;SDS011;16022;50.884;4.698;2022-07-29T02:39:35;7.63;;;2.10;;
9629;SDS011;16022;50.884;4.698;2022-07-29T02:42:05;4.07;;;2.10;;
9629;SDS011;16022;50.884;4.698;2022-07-29T02:44:34;5.72;;;2.28;;
9629;SDS011;16022;50.884;4.698;2022-07-29T02:52:03;3.42;;;1.95;;
9629;SDS011;16022;50.884;4.698;2022-07-29T02:54:39;4.45;;;2.15;;
9629;SDS011;16022;50.884;4.698;2022-07-29T02:57:09;9.93;;;2.22;;
9629;SDS011;16022;50.884;4.698;2022-07-29T02:59:37;4.45;;;2.38;;
9629;SDS011;16022;50.884;4.698;2022-07-29T03:02:06;4.13;;;2.45;;
9629;SDS011;16022;50.884;4.698;2022-07-29T03:04:36;6.47;;;2.45;;
9629;SDS011;16022;50.884;4.698;2022-07-29T03:07:05;4.03;;;2.00;;
9629;SDS011;16022;50.884;4.698;2022-07-29T03:09:33;3.58;;;2.13;;
9629;SDS011;16022;50.884;4.698;2022-07-29T03:12:01;2.90;;;2.15;;
9629;SDS011;16022;50.884;4.698;2022-07-29T03:14:28;4.40;;;2.30;;
9629;SDS011;16022;50.884;4.698;2022-07-29T03:16:57;4.20;;;2.58;;
9629;SDS011;16022;50.884;4.698;2022-07-29T03:19:25;5.90;;;2.17;;
9629;SDS011;16022;50.884;4.698;2022-07-29T03:21:54;5.00;;;2.00;;
9629;SDS011;16022;50.884;4.698;2022-07-29T03:24:26;3.25;;;2.20;;
9629;SDS011;16022;50.884;4.698;2022-07-29T03:26:54;5.28;;;2.08;;
9629;SDS011;16022;50.884;4.698;2022-07-29T03:29:21;3.95;;;2.30;;
9629;SDS011;16022;50.884;4.698;2022-07-29T03:31:49;3.80;;;2.00;;
9629;SDS011;16022;50.884;4.698;2022-07-29T03:34:17;6.82;;;2.25;;
9629;SDS011;16022;50.884;4.698;2022-07-29T03:36:48;4.55;;;1.95;;
9629;SDS011;16022;50.884;4.698;2022-07-29T03:39:18;3.78;;;2.30;;
9629;SDS011;16022;50.884;4.698;2022-07-29T03:41:48;4.53;;;2.50;;
9629;SDS011;16022;50.884;4.698;2022-07-29T03:44:16;2.72;;;2.00;;
9629;SDS011;16022;50.884;4.698;2022-07-29T03:46:44;5.20;;;2.55;;
9629;SDS011;16022;50.884;4.698;2022-07-29T03:49:13;4.18;;;2.35;;
9629;SDS011;16022;50.884;4.698;2022-07-29T03:51:41;5.78;;;2.30;;
9629;SDS011;16022;50.884;4.698;2022-07-29T03:54:10;4.20;;;1.80;;
9629;SDS011;16022;50.884;4.698;2022-07-29T03:56:39;4.57;;;2.53;;
9629;SDS011;16022;50.884;4.698;2022-07-29T03:59:07;7.13;;;2.30;;
9629;SDS011;16022;50.884;4.698;2022-07-29T04:01:35;3.28;;;2.30;;
9629;SDS011;16022;50.884;4.698;2022-07-29T04:04:04;3.50;;;2.20;;
9629;SDS011;16022;50.884;4.698;2022-07-29T04:06:41;3.58;;;2.13;;
9629;SDS011;16022;50.884;4.698;2022-07-29T04:09:09;4.50;;;1.95;;
9629;SDS011;16022;50.884;4.698;2022-07-29T04:11:40;7.70;;;2.30;;
9629;SDS011;16022;50.884;4.698;2022-07-29T04:14:28;5.20;;;2.35;;
9629;SDS011;16022;50.884;4.698;2022-07-29T04:16:56;6.80;;;2.35;;
9629;SDS011;16022;50.884;4.698;2022-07-29T04:19:23;6.00;;;2.10;;
9629;SDS011;16022;50.884;4.698;2022-07-29T04:21:51;4.90;;;2.40;;
9629;SDS011;16022;50.884;4.698;2022-07-29T04:24:18;3.88;;;2.00;;
9629;SDS011;16022;50.884;4.698;2022-07-29T04:26:46;5.80;;;2.25;;
9629;SDS011;16022;50.884;4.698;2022-07-29T04:29:14;7.28;;;2.40;;
9629;SDS011;16022;50.884;4.698;2022-07-29T04:31:42;5.15;;;2.30;;
9629;SDS011;16022;50.884;4.698;2022-07-29T04:34:10;3.95;;;2.30;;
9629;SDS011;16022;50.884;4.698;2022-07-29T04:36:38;3.40;;;2.67;;
9629;SDS011;16022;50.884;4.698;2022-07-29T04:39:06;4.50;;;2.40;;
9629;SDS011;16022;50.884;4.698;2022-07-29T04:41:33;4.70;;;2.40;;
9629;SDS011;16022;50.884;4.698;2022-07-29T04:44:01;4.18;;;2.38;;
9629;SDS011;16022;50.884;4.698;2022-07-29T04:46:32;4.22;;;2.60;;
9629;SDS011;16022;50.884;4.698;2022-07-29T04:49:00;3.95;;;2.38;;
9629;SDS011;16022;50.884;4.698;2022-07-29T04:51:27;2.50;;;2.30;;
9629;SDS011;16022;50.884;4.698;2022-07-29T04:53:55;2.55;;;2.08;;
9629;SDS011;16022;50.884;4.698;2022-07-29T04:56:22;5.78;;;2.30;;
9629;SDS011;16022;50.884;4.698;2022-07-29T04:58:49;3.70;;;2.40;;
9629;SDS011;16022;50.884;4.698;2022-07-29T05:01:17;3.08;;;2.30;;
9629;SDS011;16022;50.884;4.698;2022-07-29T05:03:44;4.30;;;2.05;;
9629;SDS011;16022;50.884;4.698;2022-07-29T05:06:12;6.35;;;2.88;;
9629;SDS011;16022;50.884;4.698;2022-07-29T05:08:39;3.35;;;2.22;;
9629;SDS011;16022;50.884;4.698;2022-07-29T05:11:07;4.65;;;2.47;;
9629;SDS011;16022;50.884;4.698;2022-07-29T05:13:37;3.17;;;2.30;;
9629;SDS011;16022;50.884;4.698;2022-07-29T05:16:12;3.75;;;2.40;;
9629;SDS011;16022;50.884;4.698;2022-07-29T05:18:39;3.95;;;2.47;;
9629;SDS011;16022;50.884;4.698;2022-07-29T05:21:07;3.50;;;2.60;;
9629;SDS011;16022;50.884;4.698;2022-07-29T05:23:34;6.22;;;2.65;;
9629;SDS011;16022;50.884;4.698;2022-07-29T05:26:02;4.18;;;2.33;;
9629;SDS011;16022;50.884;4.698;2022-07-29T05:28:32;3.90;;;2.45;;
9629;SDS011;16022;50.884;4.698;2022-07-29T05:31:00;4.32;;;2.60;;
9629;SDS011;16022;50.884;4.698;2022-07-29T05:33:28;3.10;;;2.60;;
9629;SDS011;16022;50.884;4.698;2022-07-29T05:36:02;2.55;;;2.25;;
9629;SDS011;16022;50.884;4.698;2022-07-29T05:38:32;6.15;;;2.75;;
9629;SDS011;16022;50.884;4.698;2022-07-29T05:41:01;5.60;;;2.58;;
9629;SDS011;16022;50.884;4.698;2022-07-29T05:43:28;4.72;;;2.63;;
9629;SDS011;16022;50.884;4.698;2022-07-29T05:45:55;5.18;;;2.45;;
9629;SDS011;16022;50.884;4.698;2022-07-29T05:48:23;6.22;;;2.92;;
9629;SDS011;16022;50.884;4.698;2022-07-29T05:50:51;4.22;;;2.75;;
9629;SDS011;16022;50.884;4.698;2022-07-29T05:53:18;6.18;;;2.92;;
9629;SDS011;16022;50.884;4.698;2022-07-29T05:55:49;4.68;;;2.75;;
9629;SDS011;16022;50.884;4.698;2022-07-29T05:58:17;4.95;;;2.88;;
9629;SDS011;16022;50.884;4.698;2022-07-29T06:00:45;4.20;;;2.58;;
9629;SDS011;16022;50.884;4.698;2022-07-29T06:03:13;6.18;;;3.08;;
9629;SDS011;16022;50.884;4.698;2022-07-29T06:05:40;5.03;;;2.95;;
9629;SDS011;16022;50.884;4.698;2022-07-29T06:08:09;3.63;;;2.80;;
9629;SDS011;16022;50.884;4.698;2022-07-29T06:10:37;11.43;;;3.00;;
9629;SDS011;16022;50.884;4.698;2022-07-29T06:13:04;5.30;;;2.90;;
9629;SDS011;16022;50.884;4.698;2022-07-29T06:15:32;3.28;;;2.97;;
9629;SDS011;16022;50.884;4.698;2022-07-29T06:18:00;3.17;;;2.97;;
9629;SDS011;16022;50.884;4.698;2022-07-29T06:20:30;4.25;;;3.03;;
9629;SDS011;16022;50.884;4.698;2022-07-29T06:22:58;7.05;;;2.90;;
9629;SDS011;16022;50.884;4.698;2022-07-29T06:25:26;3.22;;;2.78;;
9629;SDS011;16022;50.884;4.698;2022-07-29T06:28:00;6.72;;;3.10;;
9629;SDS011;16022;50.884;4.698;2022-07-29T06:30:28;4.57;;;3.15;;
9629;SDS011;16022;50.884;4.698;2022-07-29T06:32:56;2.80;;;2.60;;
9629;SDS011;16022;50.884;4.698;2022-07-29T06:35:23;4.07;;;2.63;;
9629;SDS011;16022;50.884;4.698;2022-07-29T06:38:07;5.38;;;3.08;;
9629;SDS011;16022;50.884;4.698;2022-07-29T06:40:55;3.67;;;2.75;;
9629;SDS011;16022;50.884;4.698;2022-07-29T06:43:33;7.43;;;2.80;;
9629;SDS011;16022;50.884;4.698;2022-07-29T06:46:18;2.83;;;2.53;;
9629;SDS011;16022;50.884;4.698;2022-07-29T06:48:46;4.55;;;3.22;;
9629;SDS011;16022;50.884;4.698;2022-07-29T06:51:14;4.75;;;3.25;;
9629;SDS011;16022;50.884;4.698;2022-07-29T06:53:48;3.85;;;2.70;;
9629;SDS011;16022;50.884;4.698;2022-07-29T06:56:27;3.55;;;2.85;;
9629;SDS011;16022;50.884;4.698;2022-07-29T06:58:55;8.50;;;3.50;;
9629;SDS011;16022;50.884;4.698;2022-07-29T07:01:22;6.70;;;3.55;;
9629;SDS011;16022;50.884;4.698;2022-07-29T07:03:49;8.85;;;3.03;;
9629;SDS011;16022;50.884;4.698;2022-07-29T07:06:17;6.88;;;3.45;;
9629;SDS011;16022;50.884;4.698;2022-07-29T07:08:44;7.88;;;3.15;;
9629;SDS011;16022;50.884;4.698;2022-07-29T07:11:13;6.90;;;2.70;;
9629;SDS011;16022;50.884;4.698;2022-07-29T07:13:40;8.15;;;3.42;;
9629;SDS011;16022;50.884;4.698;2022-07-29T07:16:08;3.45;;;3.03;;
9629;SDS011;16022;50.884;4.698;2022-07-29T07:18:36;5.97;;;3.35;;
9629;SDS011;16022;50.884;4.698;2022-07-29T07:21:04;5.82;;;3.20;;
9629;SDS011;16022;50.884;4.698;2022-07-29T07:23:32;4.63;;;3.10;;
9629;SDS011;16022;50.884;4.698;2022-07-29T07:25:59;5.80;;;2.72;;
9629;SDS011;16022;50.884;4.698;2022-07-29T07:28:26;6.50;;;3.00;;
9629;SDS011;16022;50.884;4.698;2022-07-29T07:30:55;3.20;;;2.30;;
9629;SDS011;16022;50.884;4.698;2022-07-29T07:33:22;4.07;;;2.10;;
9629;SDS011;16022;50.884;4.698;2022-07-29T07:35:51;4.60;;;2.45;;
9629;SDS011;16022;50.884;4.698;2022-07-29T07:38:18;2.22;;;2.03;;
9629;SDS011;16022;50.884;4.698;2022-07-29T07:40:46;4.18;;;2.50;;
9629;SDS011;16022;50.884;4.698;2022-07-29T07:43:13;6.10;;;2.17;;
9629;SDS011;16022;50.884;4.698;2022-07-29T07:45:41;3.20;;;2.10;;
9629;SDS011;16022;50.884;4.698;2022-07-29T07:48:08;3.55;;;2.22;;
9629;SDS011;16022;50.884;4.698;2022-07-29T07:50:36;2.72;;;1.80;;
9629;SDS011;16022;50.884;4.698;2022-07-29T07:53:04;3.30;;;2.33;;
9629;SDS011;16022;50.884;4.698;2022-07-29T07:55:31;6.47;;;2.45;;
9629;SDS011;16022;50.884;4.698;2022-07-29T07:58:19;2.28;;;1.88;;
9629;SDS011;16022;50.884;4.698;2022-07-29T08:00:47;4.38;;;2.42;;
9629;SDS011;16022;50.884;4.698;2022-07-29T08:03:14;5.15;;;2.03;;
9629;SDS011;16022;50.884;4.698;2022-07-29T08:05:42;2.30;;;2.10;;
9629;SDS011;16022;50.884;4.698;2022-07-29T08:08:10;6.25;;;2.28;;
9629;SDS011;16022;50.884;4.698;2022-07-29T08:10:37;5.47;;;2.30;;
9629;SDS011;16022;50.884;4.698;2022-07-29T08:13:23;4.00;;;2.03;;
9629;SDS011;16022;50.884;4.698;2022-07-29T08:15:54;2.63;;;2.20;;
9629;SDS011;16022;50.884;4.698;2022-07-29T08:18:30;4.32;;;2.10;;
9629;SDS011;16022;50.884;4.698;2022-07-29T08:20:58;3.22;;;2.42;;
9629;SDS011;16022;50.884;4.698;2022-07-29T08:23:25;2.63;;;1.85;;
9629;SDS011;16022;50.884;4.698;2022-07-29T08:26:15;3.45;;;2.20;;
9629;SDS011;16022;50.884;4.698;2022-07-29T08:28:43;3.15;;;2.08;;
9629;SDS011;16022;50.884;4.698;2022-07-29T08:31:12;3.05;;;2.00;;
9629;SDS011;16022;50.884;4.698;2022-07-29T08:33:40;5.10;;;2.20;;
9629;SDS011;16022;50.884;4.698;2022-07-29T08:36:09;2.80;;;1.98;;
9629;SDS011;16022;50.884;4.698;2022-07-29T08:38:36;3.10;;;2.00;;
9629;SDS011;16022;50.884;4.698;2022-07-29T08:41:04;2.80;;;1.80;;
9629;SDS011;16022;50.884;4.698;2022-07-29T08:43:32;3.13;;;1.88;;
9629;SDS011;16022;50.884;4.698;2022-07-29T08:46:03;3.13;;;2.30;;
9629;SDS011;16022;50.884;4.698;2022-07-29T08:48:31;2.10;;;1.90;;
9629;SDS011;16022;50.884;4.698;2022-07-29T08:50:59;3.20;;;2.00;;
9629;SDS011;16022;50.884;4.698;2022-07-29T08:53:29;2.13;;;1.98;;
9629;SDS011;16022;50.884;4.698;2022-07-29T08:55:57;4.00;;;2.40;;
9629;SDS011;16022;50.884;4.698;2022-07-29T08:58:25;3.40;;;2.08;;
9629;SDS011;16022;50.884;4.698;2022-07-29T09:00:54;2.92;;;1.98;;
9629;SDS011;16022;50.884;4.698;2022-07-29T09:03:24;4.28;;;2.00;;
9629;SDS011;16022;50.884;4.698;2022-07-29T09:05:52;1.90;;;1.70;;
9629;SDS011;16022;50.884;4.698;2022-07-29T09:08:20;1.98;;;1.83;;
9629;SDS011;16022;50.884;4.698;2022-07-29T09:10:48;3.70;;;2.22;;
9629;SDS011;16022;50.884;4.698;2022-07-29T09:13:16;5.90;;;2.10;;
9629;SDS011;16022;50.884;4.698;2022-07-29T09:15:46;4.57;;;1.95;;
9629;SDS011;16022;50.884;4.698;2022-07-29T09:21:02;1.75;;;1.65;;
9629;SDS011;16022;50.884;4.698;2022-07-29T09:26:37;2.00;;;1.75;;
9629;SDS011;16022;50.884;4.698;2022-07-29T09:29:12;3.63;;;1.60;;
9629;SDS011;16022;50.884;4.698;2022-07-29T09:31:43;5.07;;;2.25;;
9629;SDS011;16022;50.884;4.698;2022-07-29T09:34:11;5.35;;;1.70;;
9629;SDS011;16022;50.884;4.698;2022-07-29T09:36:43;3.33;;;1.80;;
9629;SDS011;16022;50.884;4.698;2022-07-29T09:39:11;3.50;;;1.90;;
9629;SDS011;16022;50.884;4.698;2022-07-29T09:41:49;4.70;;;2.15;;
9629;SDS011;16022;50.884;4.698;2022-07-29T09:44:19;2.30;;;1.40;;
9629;SDS011;16022;50.884;4.698;2022-07-29T09:47:01;4.40;;;1.88;;
9629;SDS011;16022;50.884;4.698;2022-07-29T09:49:34;2.95;;;1.60;;
9629;SDS011;16022;50.884;4.698;2022-07-29T09:52:06;2.03;;;1.50;;
9629;SDS011;16022;50.884;4.698;2022-07-29T09:54:34;2.58;;;1.70;;
9629;SDS011;16022;50.884;4.698;2022-07-29T09:57:09;3.35;;;1.40;;
9629;SDS011;16022;50.884;4.698;2022-07-29T09:59:57;3.58;;;1.50;;
9629;SDS011;16022;50.884;4.698;2022-07-29T10:02:29;2.42;;;1.45;;
9629;SDS011;16022;50.884;4.698;2022-07-29T10:04:58;2.55;;;1.50;;
9629;SDS011;16022;50.884;4.698;2022-07-29T10:07:26;2.92;;;1.30;;
9629;SDS011;16022;50.884;4.698;2022-07-29T10:10:09;2.13;;;1.75;;
9629;SDS011;16022;50.884;4.698;2022-07-29T10:12:56;3.20;;;1.83;;
9629;SDS011;16022;50.884;4.698;2022-07-29T10:15:32;3.90;;;1.80;;
9629;SDS011;16022;50.884;4.698;2022-07-29T10:18:03;1.90;;;1.70;;
9629;SDS011;16022;50.884;4.698;2022-07-29T10:20:32;1.92;;;1.50;;
9629;SDS011;16022;50.884;4.698;2022-07-29T10:22:59;3.40;;;1.40;;
9629;SDS011;16022;50.884;4.698;2022-07-29T10:25:27;1.85;;;1.30;;
9629;SDS011;16022;50.884;4.698;2022-07-29T10:27:55;3.10;;;1.50;;
9629;SDS011;16022;50.884;4.698;2022-07-29T10:30:23;4.82;;;1.55;;
9629;SDS011;16022;50.884;4.698;2022-07-29T10:32:54;1.77;;;1.50;;
9629;SDS011;16022;50.884;4.698;2022-07-29T10:37:57;1.70;;;1.30;;
9629;SDS011;16022;50.884;4.698;2022-07-29T10:40:40;2.72;;;1.55;;
9629;SDS011;16022;50.884;4.698;2022-07-29T10:43:35;3.55;;;1.40;;
9629;SDS011;16022;50.884;4.698;2022-07-29T10:46:07;1.75;;;1.60;;
9629;SDS011;16022;50.884;4.698;2022-07-29T10:48:36;4.30;;;1.80;;
9629;SDS011;16022;50.884;4.698;2022-07-29T10:51:23;2.47;;;1.55;;
9629;SDS011;16022;50.884;4.698;2022-07-29T10:53:53;2.33;;;1.65;;
9629;SDS011;16022;50.884;4.698;2022-07-29T10:56:26;3.67;;;1.50;;
9629;SDS011;16022;50.884;4.698;2022-07-29T11:01:42;4.60;;;1.60;;
9629;SDS011;16022;50.884;4.698;2022-07-29T11:07:15;2.03;;;1.45;;
9629;SDS011;16022;50.884;4.698;2022-07-29T11:09:43;4.80;;;2.00;;
9629;SDS011;16022;50.884;4.698;2022-07-29T11:14:58;3.88;;;1.70;;
9629;SDS011;16022;50.884;4.698;2022-07-29T11:17:27;4.50;;;1.50;;
9629;SDS011;16022;50.884;4.698;2022-07-29T11:20:34;2.83;;;1.70;;
9629;SDS011;16022;50.884;4.698;2022-07-29T11:31:19;6.47;;;1.60;;
9629;SDS011;16022;50.884;4.698;2022-07-29T11:45:01;3.97;;;1.85;;
9629;SDS011;16022;50.884;4.698;2022-07-29T11:47:55;3.10;;;1.73;;
9629;SDS011;16022;50.884;4.698;2022-07-29T11:50:44;3.72;;;1.80;;
9629;SDS011;16022;50.884;4.698;2022-07-29T11:53:14;3.55;;;1.77;;
9629;SDS011;16022;50.884;4.698;2022-07-29T11:55:42;2.28;;;1.80;;
9629;SDS011;16022;50.884;4.698;2022-07-29T11:58:21;3.17;;;2.03;;
9629;SDS011;16022;50.884;4.698;2022-07-29T12:00:53;3.75;;;1.92;;
9629;SDS011;16022;50.884;4.698;2022-07-29T12:03:25;6.10;;;2.53;;
9629;SDS011;16022;50.884;4.698;2022-07-29T12:06:01;2.40;;;1.80;;
9629;SDS011;16022;50.884;4.698;2022-07-29T12:08:28;5.18;;;2.00;;
9629;SDS011;16022;50.884;4.698;2022-07-29T12:10:57;3.60;;;1.77;;
9629;SDS011;16022;50.884;4.698;2022-07-29T12:13:24;1.90;;;1.70;;
9629;SDS011;16022;50.884;4.698;2022-07-29T12:16:04;4.45;;;1.67;;
9629;SDS011;16022;50.884;4.698;2022-07-29T12:18:32;2.10;;;1.80;;
9629;SDS011;16022;50.884;4.698;2022-07-29T12:21:00;4.32;;;2.13;;
9629;SDS011;16022;50.884;4.698;2022-07-29T12:23:32;5.65;;;1.75;;
9629;SDS011;16022;50.884;4.698;2022-07-29T12:26:04;1.90;;;1.70;;
9629;SDS011;16022;50.884;4.698;2022-07-29T12:28:37;2.08;;;1.75;;
9629;SDS011;16022;50.884;4.698;2022-07-29T12:31:05;2.75;;;1.80;;
9629;SDS011;16022;50.884;4.698;2022-07-29T12:33:40;4.30;;;1.75;;
9629;SDS011;16022;50.884;4.698;2022-07-29T12:36:07;2.42;;;1.55;;
9629;SDS011;16022;50.884;4.698;2022-07-29T12:38:43;6.22;;;1.90;;
9629;SDS011;16022;50.884;4.698;2022-07-29T12:41:10;1.90;;;1.60;;
9629;SDS011;16022;50.884;4.698;2022-07-29T12:43:47;4.82;;;1.45;;
9629;SDS011;16022;50.884;4.698;2022-07-29T12:46:18;3.58;;;1.75;;
9629;SDS011;16022;50.884;4.698;2022-07-29T12:48:49;7.68;;;2.38;;
9629;SDS011;16022;50.884;4.698;2022-07-29T12:51:17;4.00;;;1.65;;
9629;SDS011;16022;50.884;4.698;2022-07-29T12:54:08;3.42;;;1.73;;
9629;SDS011;16022;50.884;4.698;2022-07-29T12:56:34;2.55;;;1.75;;
9629;SDS011;16022;50.884;4.698;2022-07-29T12:59:15;4.05;;;1.88;;
9629;SDS011;16022;50.884;4.698;2022-07-29T13:01:43;3.78;;;1.80;;
9629;SDS011;16022;50.884;4.698;2022-07-29T13:04:26;5.30;;;1.55;;
9629;SDS011;16022;50.884;4.698;2022-07-29T13:07:12;2.60;;;1.60;;
9629;SDS011;16022;50.884;4.698;2022-07-29T13:09:41;3.40;;;1.70;;
9629;SDS011;16022;50.884;4.698;2022-07-29T13:12:10;3.70;;;2.00;;
9629;SDS011;16022;50.884;4.698;2022-07-29T13:14:45;3.42;;;1.85;;
9629;SDS011;16022;50.884;4.698;2022-07-29T13:17:17;1.85;;;1.63;;
9629;SDS011;16022;50.884;4.698;2022-07-29T13:19:50;8.05;;;1.70;;
9629;SDS011;16022;50.884;4.698;2022-07-29T13:22:20;2.50;;;1.55;;
9629;SDS011;16022;50.884;4.698;2022-07-29T13:27:19;7.80;;;2.20;;
9629;SDS011;16022;50.884;4.698;2022-07-29T13:32:20;2.38;;;1.52;;
9629;SDS011;16022;50.884;4.698;2022-07-29T13:34:56;4.82;;;1.50;;
9629;SDS011;16022;50.884;4.698;2022-07-29T13:40:17;4.88;;;1.73;;
9629;SDS011;16022;50.884;4.698;2022-07-29T13:42:45;6.07;;;1.73;;
9629;SDS011;16022;50.884;4.698;2022-07-29T13:45:13;3.20;;;1.70;;
9629;SDS011;16022;50.884;4.698;2022-07-29T13:47:48;5.82;;;2.00;;
9629;SDS011;16022;50.884;4.698;2022-07-29T13:50:17;3.00;;;1.73;;
9629;SDS011;16022;50.884;4.698;2022-07-29T13:52:46;3.35;;;2.08;;
9629;SDS011;16022;50.884;4.698;2022-07-29T13:55:18;7.70;;;2.10;;
9629;SDS011;16022;50.884;4.698;2022-07-29T13:57:46;4.57;;;1.85;;
9629;SDS011;16022;50.884;4.698;2022-07-29T14:00:14;5.15;;;2.20;;
9629;SDS011;16022;50.884;4.698;2022-07-29T14:02:42;4.75;;;1.65;;
9629;SDS011;16022;50.884;4.698;2022-07-29T14:05:10;3.58;;;1.98;;
9629;SDS011;16022;50.884;4.698;2022-07-29T14:07:38;3.35;;;2.08;;
9629;SDS011;16022;50.884;4.698;2022-07-29T14:10:06;2.58;;;1.67;;
9629;SDS011;16022;50.884;4.698;2022-07-29T14:12:35;5.25;;;2.00;;
9629;SDS011;16022;50.884;4.698;2022-07-29T14:15:02;4.40;;;1.90;;
9629;SDS011;16022;50.884;4.698;2022-07-29T14:17:31;3.63;;;1.70;;
9629;SDS011;16022;50.884;4.698;2022-07-29T14:20:00;4.70;;;2.13;;
9629;SDS011;16022;50.884;4.698;2022-07-29T14:22:27;7.28;;;1.95;;
9629;SDS011;16022;50.884;4.698;2022-07-29T14:24:56;2.95;;;1.98;;
9629;SDS011;16022;50.884;4.698;2022-07-29T14:27:38;5.97;;;2.70;;
9629;SDS011;16022;50.884;4.698;2022-07-29T14:30:07;3.75;;;2.20;;
9629;SDS011;16022;50.884;4.698;2022-07-29T14:32:35;2.88;;;2.38;;
9629;SDS011;16022;50.884;4.698;2022-07-29T14:35:03;4.47;;;2.30;;
9629;SDS011;16022;50.884;4.698;2022-07-29T14:37:30;7.40;;;2.40;;
9629;SDS011;16022;50.884;4.698;2022-07-29T14:40:06;6.55;;;2.35;;
9629;SDS011;16022;50.884;4.698;2022-07-29T14:42:34;4.10;;;2.42;;
9629;SDS011;16022;50.884;4.698;2022-07-29T14:45:03;6.07;;;2.60;;
9629;SDS011;16022;50.884;4.698;2022-07-29T14:47:33;4.43;;;2.53;;
9629;SDS011;16022;50.884;4.698;2022-07-29T14:50:01;3.72;;;2.20;;
9629;SDS011;16022;50.884;4.698;2022-07-29T14:52:28;6.88;;;2.97;;
9629;SDS011;16022;50.884;4.698;2022-07-29T14:54:56;5.22;;;2.30;;
9629;SDS011;16022;50.884;4.698;2022-07-29T15:08:46;4.13;;;2.30;;
9629;SDS011;16022;50.884;4.698;2022-07-29T15:11:13;4.93;;;2.15;;
9629;SDS011;16022;50.884;4.698;2022-07-29T15:13:41;3.80;;;2.20;;
9629;SDS011;16022;50.884;4.698;2022-07-29T15:16:09;7.10;;;2.22;;
9629;SDS011;16022;50.884;4.698;2022-07-29T15:18:36;3.22;;;2.03;;
9629;SDS011;16022;50.884;4.698;2022-07-29T15:21:05;5.65;;;2.20;;
9629;SDS011;16022;50.884;4.698;2022-07-29T15:23:35;7.63;;;2.67;;
9629;SDS011;16022;50.884;4.698;2022-07-29T15:26:03;3.47;;;2.20;;
9629;SDS011;16022;50.884;4.698;2022-07-29T15:28:31;4.68;;;2.20;;
9629;SDS011;16022;50.884;4.698;2022-07-29T15:30:58;4.15;;;2.10;;
9629;SDS011;16022;50.884;4.698;2022-07-29T15:33:26;6.05;;;2.00;;
9629;SDS011;16022;50.884;4.698;2022-07-29T15:35:55;4.90;;;1.95;;
9629;SDS011;16022;50.884;4.698;2022-07-29T15:38:23;3.00;;;2.10;;
9629;SDS011;16022;50.884;4.698;2022-07-29T15:40:54;3.13;;;2.05;;
9629;SDS011;16022;50.884;4.698;2022-07-29T15:43:22;2.40;;;1.95;;
9629;SDS011;16022;50.884;4.698;2022-07-29T15:45:51;5.20;;;1.90;;
9629;SDS011;16022;50.884;4.698;2022-07-29T15:48:38;3.25;;;1.80;;
9629;SDS011;16022;50.884;4.698;2022-07-29T15:51:06;8.55;;;2.00;;
9629;SDS011;16022;50.884;4.698;2022-07-29T15:53:33;4.20;;;2.13;;
9629;SDS011;16022;50.884;4.698;2022-07-29T16:06:37;3.45;;;1.67;;
9629;SDS011;16022;50.884;4.698;2022-07-29T16:11:57;6.32;;;2.22;;
9629;SDS011;16022;50.884;4.698;2022-07-29T16:14:25;6.15;;;1.80;;
9629;SDS011;16022;50.884;4.698;2022-07-29T16:16:53;4.68;;;1.80;;
9629;SDS011;16022;50.884;4.698;2022-07-29T16:19:22;2.08;;;1.60;;
9629;SDS011;16022;50.884;4.698;2022-07-29T16:21:49;2.45;;;1.58;;
9629;SDS011;16022;50.884;4.698;2022-07-29T16:27:08;8.70;;;2.15;;
9629;SDS011;16022;50.884;4.698;2022-07-29T16:29:36;2.95;;;1.80;;
9629;SDS011;16022;50.884;4.698;2022-07-29T16:32:04;3.60;;;2.17;;
9629;SDS011;16022;50.884;4.698;2022-07-29T16:34:32;3.53;;;1.40;;
9629;SDS011;16022;50.884;4.698;2022-07-29T16:37:02;3.60;;;1.77;;
9629;SDS011;16022;50.884;4.698;2022-07-29T16:39:31;5.82;;;1.92;;
9629;SDS011;16022;50.884;4.698;2022-07-29T16:41:59;4.25;;;2.30;;
9629;SDS011;16022;50.884;4.698;2022-07-29T16:44:31;7.32;;;3.85;;
9629;SDS011;16022;50.884;4.698;2022-07-29T16:47:00;3.50;;;1.80;;
9629;SDS011;16022;50.884;4.698;2022-07-29T16:49:28;5.13;;;2.10;;